createdAt,value
2024-04-14T00:01:43.173Z,4.10
2024-04-14T00:04:10.016Z,4.68
2024-04-14T00:06:36.854Z,4.50
2024-04-14T00:09:03.913Z,4.22
2024-04-14T00:11:30.665Z,4.13
2024-04-14T00:13:57.255Z,4.47
2024-04-14T00:16:23.894Z,4.57
2024-04-14T00:18:51.638Z,4.22
2024-04-14T00:21:23.354Z,3.97
2024-04-14T00:23:51.234Z,3.85
2024-04-14T00:26:17.898Z,4.18
2024-04-14T00:28:45.567Z,4.60
2024-04-14T00:31:12.293Z,4.22
2024-04-14T00:33:39.194Z,4.10
2024-04-14T00:36:06.446Z,3.95
2024-04-14T00:38:33.155Z,4.22
2024-04-14T00:40:59.754Z,4.47
2024-04-14T00:43:26.399Z,4.53
2024-04-14T00:45:53.725Z,3.92
2024-04-14T00:48:21.492Z,3.97
2024-04-14T00:50:50.318Z,3.92
2024-04-14T00:53:17.161Z,4.43
2024-04-14T00:55:45.012Z,3.90
2024-04-14T00:58:11.936Z,4.20
2024-04-14T01:00:39.000Z,3.63
2024-04-14T01:03:07.689Z,3.53
2024-04-14T01:05:34.372Z,3.67
2024-04-14T01:08:01.158Z,3.88
2024-04-14T01:10:30.874Z,3.53
2024-04-14T01:12:57.980Z,3.92
2024-04-14T01:15:24.918Z,3.55
2024-04-14T01:17:51.736Z,3.50
2024-04-14T01:20:19.118Z,3.92
2024-04-14T01:22:45.650Z,3.88
2024-04-14T01:25:12.768Z,3.50
2024-04-14T01:27:41.980Z,3.67
2024-04-14T01:30:09.518Z,3.65
2024-04-14T01:32:39.036Z,3.83
2024-04-14T01:35:06.718Z,3.92
2024-04-14T01:37:33.655Z,3.42
2024-04-14T01:40:00.534Z,3.75
2024-04-14T01:42:27.387Z,3.35
2024-04-14T01:44:54.063Z,3.40
2024-04-14T01:47:20.667Z,3.42
2024-04-14T01:49:47.305Z,3.63
2024-04-14T01:52:13.887Z,3.50
2024-04-14T01:54:40.583Z,3.65
2024-04-14T01:57:07.291Z,3.92
2024-04-14T01:59:34.003Z,3.55
2024-04-14T02:02:00.547Z,3.60
2024-04-14T02:04:27.248Z,3.53
2024-04-14T02:06:53.967Z,3.70
2024-04-14T02:09:20.799Z,3.38
2024-04-14T02:11:47.483Z,3.30
2024-04-14T02:14:14.184Z,3.30
2024-04-14T02:16:40.769Z,4.30
2024-04-14T02:19:07.419Z,3.38
2024-04-14T02:21:34.104Z,3.10
2024-04-14T02:24:00.720Z,3.53
2024-04-14T02:26:27.306Z,3.55
2024-04-14T02:28:53.888Z,3.70
2024-04-14T02:31:20.584Z,3.60
2024-04-14T02:33:47.209Z,3.40
2024-04-14T02:36:13.813Z,3.83
2024-04-14T02:38:40.408Z,3.35
2024-04-14T02:41:07.003Z,3.70
2024-04-14T02:43:36.504Z,3.70
2024-04-14T02:46:03.532Z,3.55
2024-04-14T02:48:30.342Z,4.28
2024-04-14T02:50:57.044Z,3.60
2024-04-14T02:53:24.316Z,3.88
2024-04-14T02:55:50.918Z,4.30
2024-04-14T02:58:18.680Z,3.63
2024-04-14T03:00:45.492Z,3.55
2024-04-14T03:03:12.292Z,4.05
2024-04-14T03:05:38.990Z,3.22
2024-04-14T03:08:06.748Z,3.80
2024-04-14T03:10:34.361Z,3.63
2024-04-14T03:13:01.202Z,3.65
2024-04-14T03:15:28.148Z,3.63
2024-04-14T03:17:55.092Z,3.90
2024-04-14T03:20:21.732Z,3.50
2024-04-14T03:22:48.315Z,3.80
2024-04-14T03:25:14.946Z,3.67
2024-04-14T03:27:41.602Z,3.47
2024-04-14T03:30:08.800Z,3.20
2024-04-14T03:32:35.546Z,3.33
2024-04-14T03:35:02.134Z,3.60
2024-04-14T03:37:28.763Z,3.20
2024-04-14T03:39:55.723Z,3.75
2024-04-14T03:42:22.401Z,3.35
2024-04-14T03:44:49.163Z,3.22
2024-04-14T03:47:15.749Z,3.00
2024-04-14T03:49:42.334Z,3.63
2024-04-14T03:52:09.022Z,3.17
2024-04-14T03:54:35.679Z,3.40
2024-04-14T03:57:04.105Z,2.88
2024-04-14T03:59:30.817Z,3.20
2024-04-14T04:01:57.364Z,3.42
2024-04-14T04:04:24.098Z,3.05
2024-04-14T04:06:50.772Z,3.40
2024-04-14T04:09:17.490Z,3.55
2024-04-14T04:11:44.350Z,3.88
2024-04-14T04:14:10.889Z,3.30
2024-04-14T04:16:37.580Z,3.47
2024-04-14T04:19:11.395Z,3.42
2024-04-14T04:21:45.530Z,3.38
2024-04-14T04:24:12.225Z,3.38
2024-04-14T04:26:39.211Z,3.53
2024-04-14T04:29:05.877Z,3.63
2024-04-14T04:31:32.443Z,4.45
2024-04-14T04:33:59.080Z,4.15
2024-04-14T04:36:25.947Z,4.70
2024-04-14T04:38:54.936Z,4.00
2024-04-14T04:41:21.586Z,3.85
2024-04-14T04:43:49.248Z,3.80
2024-04-14T04:48:42.732Z,3.97
2024-04-14T04:51:09.456Z,3.28
2024-04-14T04:53:36.138Z,3.10
2024-04-14T04:56:02.773Z,3.58
2024-04-14T04:58:29.476Z,3.42
2024-04-14T05:00:59.804Z,3.13
2024-04-14T05:03:31.256Z,3.15
2024-04-14T05:06:00.920Z,3.13
2024-04-14T05:08:28.386Z,2.95
2024-04-14T05:10:56.926Z,3.50
2024-04-14T05:13:24.650Z,2.92
2024-04-14T05:15:51.834Z,2.90
2024-04-14T05:18:18.621Z,3.15
2024-04-14T05:20:45.924Z,3.03
2024-04-14T05:23:12.832Z,3.30
2024-04-14T05:25:42.800Z,2.95
2024-04-14T05:28:09.771Z,3.00
2024-04-14T05:30:42.282Z,2.55
2024-04-14T05:33:08.879Z,2.90
2024-04-14T05:35:35.815Z,2.78
2024-04-14T05:38:03.354Z,2.80
2024-04-14T05:42:56.633Z,2.67
2024-04-14T05:45:28.235Z,2.80
2024-04-14T05:47:58.578Z,2.75
2024-04-14T05:50:25.259Z,2.80
2024-04-14T05:52:51.823Z,3.10
2024-04-14T05:55:18.595Z,2.95
2024-04-14T05:57:45.205Z,2.80
2024-04-14T06:00:12.026Z,2.45
2024-04-14T06:02:38.689Z,2.60
2024-04-14T06:05:06.038Z,3.15
2024-04-14T06:07:35.997Z,3.30
2024-04-14T06:10:03.936Z,3.22
2024-04-14T06:14:57.437Z,2.83
2024-04-14T06:17:24.088Z,3.22
2024-04-14T06:19:50.738Z,3.70
2024-04-14T06:22:18.233Z,3.25
2024-04-14T06:24:44.875Z,3.13
2024-04-14T06:27:11.526Z,2.95
2024-04-14T06:29:38.229Z,3.30
2024-04-14T06:32:05.307Z,3.10
2024-04-14T06:36:58.667Z,2.90
2024-04-14T06:39:26.277Z,3.22
2024-04-14T06:41:52.963Z,2.80
2024-04-14T06:44:19.801Z,3.22
2024-04-14T06:46:46.629Z,2.60
2024-04-14T06:49:13.299Z,2.50
2024-04-14T06:51:41.168Z,2.65
2024-04-14T06:54:07.753Z,2.70
2024-04-14T06:56:36.639Z,2.83
2024-04-14T06:59:03.840Z,2.80
2024-04-14T07:01:30.923Z,2.70
2024-04-14T07:03:57.811Z,3.10
2024-04-14T07:06:24.982Z,2.72
2024-04-14T07:08:51.644Z,3.08
2024-04-14T07:11:18.594Z,2.53
2024-04-14T07:16:11.788Z,2.50
2024-04-14T07:18:38.508Z,2.47
2024-04-14T07:21:05.556Z,2.40
2024-04-14T07:23:33.282Z,2.58
2024-04-14T07:26:00.059Z,2.05
2024-04-14T07:30:53.351Z,2.95
2024-04-14T07:35:46.911Z,2.30
2024-04-14T07:38:14.675Z,1.88
2024-04-14T07:40:42.378Z,1.98
2024-04-14T07:43:09.142Z,1.88
2024-04-14T07:45:36.734Z,1.85
2024-04-14T07:48:03.644Z,1.90
2024-04-14T07:50:30.362Z,1.90
2024-04-14T07:52:57.027Z,1.60
2024-04-14T07:55:23.876Z,1.88
2024-04-14T07:57:50.641Z,1.50
2024-04-14T08:00:18.745Z,1.83
2024-04-14T08:02:45.752Z,1.80
2024-04-14T08:05:12.482Z,1.63
2024-04-14T08:07:39.254Z,1.90
2024-04-14T08:10:06.400Z,1.75
2024-04-14T08:12:33.057Z,1.60
2024-04-14T08:14:59.769Z,1.60
2024-04-14T08:17:26.431Z,1.73
2024-04-14T08:19:53.983Z,1.50
2024-04-14T08:22:20.907Z,1.52
2024-04-14T08:24:47.656Z,1.73
2024-04-14T08:27:14.224Z,1.50
2024-04-14T08:32:07.880Z,1.65
2024-04-14T08:34:34.677Z,1.63
2024-04-14T08:37:01.502Z,1.60
2024-04-14T08:39:28.317Z,1.65
2024-04-14T08:41:57.889Z,1.33
2024-04-14T08:44:26.095Z,1.48
2024-04-14T08:46:54.523Z,1.40
2024-04-14T08:49:24.551Z,1.60
2024-04-14T08:51:52.782Z,1.42
2024-04-14T08:54:19.447Z,1.30
2024-04-14T08:56:49.860Z,1.67
2024-04-14T08:59:18.218Z,1.77
2024-04-14T09:01:44.943Z,1.77
2024-04-14T09:04:11.950Z,1.35
2024-04-14T09:06:45.439Z,1.50
2024-04-14T09:09:14.938Z,1.35
2024-04-14T09:11:56.422Z,1.55
2024-04-14T09:14:26.584Z,1.30
2024-04-14T09:16:53.476Z,1.35
2024-04-14T09:19:20.234Z,1.60
2024-04-14T09:21:47.376Z,1.40
2024-04-14T09:24:14.254Z,1.70
2024-04-14T09:26:40.848Z,1.48
2024-04-14T09:31:36.309Z,1.42
2024-04-14T09:34:06.887Z,1.77
2024-04-14T09:36:33.626Z,1.55
2024-04-14T09:39:02.636Z,1.55
2024-04-14T09:41:29.818Z,1.60
2024-04-14T09:43:57.240Z,1.50
2024-04-14T09:46:28.557Z,1.60
2024-04-14T09:48:55.551Z,1.80
2024-04-14T09:51:23.661Z,1.50
2024-04-14T09:53:51.011Z,1.40
2024-04-14T09:56:17.860Z,1.77
2024-04-14T09:58:44.732Z,1.52
2024-04-14T10:03:42.964Z,1.40
2024-04-14T10:06:10.577Z,1.60
2024-04-14T10:08:37.322Z,1.73
2024-04-14T10:11:05.903Z,1.55
2024-04-14T10:13:52.205Z,1.73
2024-04-14T10:16:20.224Z,1.60
2024-04-14T10:18:48.620Z,1.60
2024-04-14T10:21:19.163Z,1.50
2024-04-14T10:23:50.924Z,1.48
2024-04-14T10:26:21.235Z,1.50
2024-04-14T10:28:56.000Z,1.60
2024-04-14T10:31:34.718Z,1.42
2024-04-14T10:34:08.486Z,1.35
2024-04-14T10:36:41.140Z,1.45
2024-04-14T10:39:15.314Z,1.70
2024-04-14T10:41:42.064Z,1.40
2024-04-14T10:46:49.710Z,1.60
2024-04-14T10:49:17.409Z,1.70
2024-04-14T10:51:44.314Z,1.50
2024-04-14T10:54:11.007Z,1.48
2024-04-14T10:56:37.894Z,1.30
2024-04-14T10:59:04.524Z,1.45
2024-04-14T11:01:31.881Z,1.65
2024-04-14T11:03:59.236Z,1.55
2024-04-14T11:06:26.474Z,1.50
2024-04-14T11:08:54.553Z,1.45
2024-04-14T11:11:21.822Z,1.38
2024-04-14T11:13:49.337Z,1.67
2024-04-14T11:16:17.295Z,1.50
2024-04-14T11:18:47.803Z,1.80
2024-04-14T11:21:21.438Z,1.30
2024-04-14T11:23:49.474Z,1.27
2024-04-14T11:26:16.168Z,1.50
2024-04-14T11:28:42.815Z,1.40
2024-04-14T11:31:10.000Z,1.30
2024-04-14T11:33:38.624Z,1.30
2024-04-14T11:36:11.428Z,1.20
2024-04-14T11:38:38.701Z,1.40
2024-04-14T11:41:06.200Z,1.30
2024-04-14T11:43:32.882Z,1.38
2024-04-14T11:48:26.460Z,1.48
2024-04-14T11:50:53.520Z,1.40
2024-04-14T11:53:20.533Z,1.50
2024-04-14T11:55:47.202Z,1.35
2024-04-14T12:00:42.693Z,1.40
2024-04-14T12:03:10.142Z,1.30
2024-04-14T12:05:36.943Z,1.40
2024-04-14T12:10:31.946Z,1.50
2024-04-14T12:12:59.008Z,1.40
2024-04-14T12:15:25.621Z,1.58
2024-04-14T12:17:52.269Z,1.42
2024-04-14T12:20:19.180Z,1.38
2024-04-14T12:22:45.758Z,1.23
2024-04-14T12:25:12.430Z,1.40
2024-04-14T12:27:39.492Z,1.48
2024-04-14T12:30:06.706Z,1.25
2024-04-14T12:32:33.299Z,1.55
2024-04-14T12:37:29.828Z,1.42
2024-04-14T12:42:23.514Z,1.67
2024-04-14T12:44:50.265Z,1.40
2024-04-14T12:47:17.072Z,1.33
2024-04-14T12:49:43.771Z,1.30
2024-04-14T12:57:04.028Z,1.40
2024-04-14T12:59:30.730Z,1.40
2024-04-14T13:01:57.532Z,1.25
2024-04-14T13:04:24.530Z,1.40
2024-04-14T13:06:51.443Z,1.38
2024-04-14T13:09:18.078Z,1.38
2024-04-14T13:14:12.368Z,1.52
2024-04-14T13:16:39.099Z,1.33
2024-04-14T13:19:05.904Z,1.55
2024-04-14T13:21:34.710Z,1.48
2024-04-14T13:24:01.525Z,1.55
2024-04-14T13:26:29.050Z,1.50
2024-04-14T13:28:56.120Z,1.50
2024-04-14T13:31:22.715Z,1.38
2024-04-14T13:36:16.639Z,1.30
2024-04-14T13:41:10.487Z,1.50
2024-04-14T13:43:37.429Z,1.40
2024-04-14T13:46:04.266Z,2.28
2024-04-14T13:48:31.094Z,1.20
2024-04-14T13:50:57.735Z,1.60
2024-04-14T13:55:50.978Z,1.35
2024-04-14T13:58:21.587Z,1.40
2024-04-14T14:00:49.428Z,1.42
2024-04-14T14:03:16.372Z,1.42
2024-04-14T14:05:44.593Z,1.33
2024-04-14T14:08:12.227Z,1.23
2024-04-14T14:10:39.062Z,1.33
2024-04-14T14:13:08.723Z,1.40
2024-04-14T14:15:35.919Z,1.30
2024-04-14T14:18:02.972Z,1.33
2024-04-14T14:20:29.714Z,1.50
2024-04-14T14:22:56.671Z,1.27
2024-04-14T14:25:23.655Z,1.92
2024-04-14T14:27:50.338Z,1.67
2024-04-14T14:32:43.526Z,2.75
2024-04-14T14:37:55.254Z,3.10
2024-04-14T14:42:48.993Z,1.60
2024-04-14T14:45:15.722Z,1.65
2024-04-14T14:50:09.035Z,1.30
2024-04-14T14:55:02.233Z,1.50
2024-04-14T14:59:55.566Z,1.42
2024-04-14T15:04:49.472Z,1.42
2024-04-14T15:07:16.284Z,1.33
2024-04-14T15:09:43.164Z,1.40
2024-04-14T15:12:12.503Z,1.90
2024-04-14T15:14:39.359Z,1.67
2024-04-14T15:17:06.016Z,1.60
2024-04-14T15:22:02.023Z,1.45
2024-04-14T15:24:28.713Z,1.60
2024-04-14T15:26:55.396Z,1.33
2024-04-14T15:31:48.557Z,1.40
2024-04-14T15:39:08.531Z,1.60
2024-04-14T15:41:35.236Z,2.10
2024-04-14T15:46:41.511Z,1.90
2024-04-14T15:49:10.562Z,2.50
2024-04-14T15:51:37.350Z,1.60
2024-04-14T15:54:04.550Z,2.00
2024-04-14T15:56:31.090Z,1.48
2024-04-14T15:58:57.690Z,1.52
2024-04-14T16:01:24.484Z,1.70
2024-04-14T16:06:21.420Z,1.70
2024-04-14T16:08:53.850Z,1.50
2024-04-14T16:11:20.901Z,1.80
2024-04-14T16:13:47.774Z,2.00
2024-04-14T16:16:17.089Z,1.65
2024-04-14T16:18:44.429Z,1.90
2024-04-14T16:21:11.481Z,1.85
2024-04-14T16:23:47.008Z,1.88
2024-04-14T16:26:14.405Z,1.88
2024-04-14T16:28:41.846Z,1.75
2024-04-14T16:31:10.452Z,1.83
2024-04-14T16:33:37.370Z,1.88
2024-04-14T16:36:04.740Z,1.65
2024-04-14T16:38:31.654Z,1.75
2024-04-14T16:43:24.955Z,2.00
2024-04-14T16:48:18.817Z,1.90
2024-04-14T16:50:45.788Z,1.90
2024-04-14T16:53:12.589Z,1.52
2024-04-14T16:55:39.292Z,1.52
2024-04-14T16:58:06.302Z,1.75
2024-04-14T17:00:34.079Z,1.85
2024-04-14T17:03:01.350Z,2.03
2024-04-14T17:05:28.155Z,2.72
2024-04-14T17:07:54.813Z,1.90
2024-04-14T17:10:21.573Z,1.80
2024-04-14T17:15:15.548Z,2.33
2024-04-14T17:17:42.699Z,1.98
2024-04-14T17:20:09.746Z,2.13
2024-04-14T17:22:37.185Z,2.00
2024-04-14T17:25:04.121Z,1.88
2024-04-14T17:29:57.367Z,2.20
2024-04-14T17:32:24.057Z,2.00
2024-04-14T17:34:50.766Z,2.20
2024-04-14T17:37:17.432Z,1.83
2024-04-14T17:39:44.203Z,2.95
2024-04-14T17:42:10.927Z,3.20
2024-04-14T17:44:37.873Z,2.10
2024-04-14T17:49:31.600Z,2.20
2024-04-14T17:51:58.388Z,2.40
2024-04-14T17:54:24.991Z,2.03
2024-04-14T17:56:52.388Z,2.33
2024-04-14T17:59:19.319Z,2.25
2024-04-14T18:01:47.006Z,2.30
2024-04-14T18:04:13.912Z,2.22
2024-04-14T18:06:40.659Z,2.40
2024-04-14T18:09:07.812Z,2.92
2024-04-14T18:11:34.534Z,2.40
2024-04-14T18:14:01.319Z,2.75
2024-04-14T18:16:27.976Z,2.60
2024-04-14T18:18:54.632Z,2.60
2024-04-14T18:21:21.806Z,2.50
2024-04-14T18:23:48.450Z,2.60
2024-04-14T18:26:15.108Z,2.60
2024-04-14T18:28:41.968Z,3.00
2024-04-14T18:31:08.717Z,2.70
2024-04-14T18:33:35.575Z,3.35
2024-04-14T18:36:10.524Z,3.17
2024-04-14T18:38:44.953Z,2.90
2024-04-14T18:41:11.752Z,2.72
2024-04-14T18:43:38.533Z,2.70
2024-04-14T18:46:05.517Z,2.70
2024-04-14T18:48:36.932Z,2.53
2024-04-14T18:51:07.180Z,2.63
2024-04-14T18:53:34.079Z,2.95
2024-04-14T18:56:03.161Z,2.50
2024-04-14T18:58:32.993Z,2.65
2024-04-14T19:01:01.521Z,2.40
2024-04-14T19:03:28.311Z,2.63
2024-04-14T19:05:55.127Z,2.58
2024-04-14T19:08:27.333Z,2.33
2024-04-14T19:10:54.063Z,2.33
2024-04-14T19:13:20.772Z,2.80
2024-04-14T19:15:48.941Z,2.78
2024-04-14T19:18:15.872Z,2.50
2024-04-14T19:20:42.526Z,2.88
2024-04-14T19:23:09.221Z,2.78
2024-04-14T19:25:35.813Z,2.97
2024-04-14T19:28:04.064Z,2.58
2024-04-14T19:30:30.707Z,2.85
2024-04-14T19:32:57.405Z,3.15
2024-04-14T19:35:24.168Z,3.13
2024-04-14T19:37:50.884Z,2.60
2024-04-14T19:40:17.530Z,2.90
2024-04-14T19:42:45.903Z,2.67
2024-04-14T19:45:12.763Z,2.95
2024-04-14T19:47:39.425Z,2.58
2024-04-14T19:50:06.359Z,3.10
2024-04-14T19:52:33.740Z,2.75
2024-04-14T19:55:02.679Z,2.80
2024-04-14T19:57:29.908Z,2.75
2024-04-14T20:02:23.584Z,2.72
2024-04-14T20:04:50.300Z,2.78
2024-04-14T20:07:18.900Z,2.95
2024-04-14T20:09:46.029Z,2.53
2024-04-14T20:12:13.115Z,2.80
2024-04-14T20:14:39.767Z,2.63
2024-04-14T20:17:06.387Z,2.78
2024-04-14T20:19:33.781Z,2.90
2024-04-14T20:22:00.540Z,2.40
2024-04-14T20:24:27.233Z,2.70
2024-04-14T20:26:53.878Z,2.50
2024-04-14T20:29:21.468Z,2.50
2024-04-14T20:31:48.772Z,2.70
2024-04-14T20:36:42.247Z,2.72
2024-04-14T20:39:10.679Z,3.05
2024-04-14T20:41:37.403Z,3.10
2024-04-14T20:44:03.988Z,3.03
2024-04-14T20:46:30.672Z,3.35
2024-04-14T20:48:57.328Z,3.45
2024-04-14T20:51:24.074Z,3.70
2024-04-14T20:53:50.652Z,3.70
2024-04-14T20:56:17.322Z,3.80
2024-04-14T20:58:48.055Z,3.38
2024-04-14T21:01:15.567Z,3.85
2024-04-14T21:03:42.791Z,3.75
2024-04-14T21:06:09.525Z,3.17
2024-04-14T21:08:36.134Z,3.47
2024-04-14T21:11:10.307Z,3.30
2024-04-14T21:13:37.084Z,3.20
2024-04-14T21:16:13.471Z,4.10
2024-04-14T21:18:42.593Z,3.50
2024-04-14T21:21:09.566Z,3.78
2024-04-14T21:23:36.208Z,3.35
2024-04-14T21:26:05.012Z,4.30
2024-04-14T21:28:33.521Z,3.90
2024-04-14T21:31:00.419Z,3.42
2024-04-14T21:33:27.322Z,3.40
2024-04-14T21:35:55.241Z,3.65
2024-04-14T21:38:23.048Z,3.47
2024-04-14T21:40:51.006Z,4.00
2024-04-14T21:43:18.570Z,3.63
2024-04-14T21:45:59.143Z,3.80
2024-04-14T21:51:05.411Z,3.83
2024-04-14T21:53:33.754Z,3.50
2024-04-14T21:56:01.559Z,3.38
2024-04-14T21:58:31.695Z,3.60
2024-04-14T22:01:00.686Z,3.45
2024-04-14T22:03:28.133Z,3.70
2024-04-14T22:05:56.438Z,3.88
2024-04-14T22:08:24.662Z,3.88
2024-04-14T22:10:51.378Z,4.05
2024-04-14T22:13:22.791Z,3.92
2024-04-14T22:15:51.530Z,4.20
2024-04-14T22:18:19.219Z,3.75
2024-04-14T22:20:46.536Z,3.90
2024-04-14T22:23:13.664Z,3.83
2024-04-14T22:25:40.561Z,4.32
2024-04-14T22:28:08.420Z,4.53
2024-04-14T22:30:35.976Z,4.35
2024-04-14T22:33:02.661Z,4.43
2024-04-14T22:35:29.536Z,4.15
2024-04-14T22:37:56.249Z,3.95
2024-04-14T22:40:22.864Z,4.32
2024-04-14T22:42:49.574Z,4.53
2024-04-14T22:45:16.327Z,4.60
2024-04-14T22:47:43.311Z,4.22
2024-04-14T22:50:10.003Z,4.43
2024-04-14T22:52:37.008Z,4.88
2024-04-14T22:55:05.445Z,4.28
2024-04-14T22:57:32.085Z,4.20
2024-04-14T22:59:58.966Z,4.43
2024-04-14T23:02:25.740Z,4.18
2024-04-14T23:04:52.485Z,4.38
2024-04-14T23:07:19.292Z,4.30
2024-04-14T23:09:46.039Z,5.15
2024-04-14T23:12:13.064Z,4.20
2024-04-14T23:14:39.784Z,4.20
2024-04-14T23:17:06.419Z,4.35
2024-04-14T23:19:33.042Z,4.93
2024-04-14T23:21:59.683Z,4.30
2024-04-14T23:24:26.281Z,4.38
2024-04-14T23:26:52.902Z,4.43
2024-04-14T23:29:19.513Z,4.28
2024-04-14T23:31:46.197Z,4.72
2024-04-14T23:34:13.001Z,4.72
2024-04-14T23:36:39.699Z,4.60
2024-04-14T23:39:06.458Z,4.28
2024-04-14T23:41:33.086Z,4.00
2024-04-14T23:43:59.950Z,4.20
2024-04-14T23:46:26.813Z,4.30
2024-04-14T23:48:53.531Z,5.30
2024-04-14T23:51:21.028Z,4.43
2024-04-14T23:56:14.099Z,4.03
2024-04-14T23:58:41.399Z,4.60
